Norman, OK

10:13 PM CDT on August 28, 2014 (GMT -0500)
Wiley Post | Change Station
CLOSE
Current Station
Airport
Location: Oklahoma City Wiley Post,
Elevation: 1299 ft
Nearby Weather Stations

Elev 1299 ft 35.53 °N, 97.65 °W | Updated 20 minutes ago

Mostly Cloudy
Mostly Cloudy
73 °F
Feels Like 73 °F
N
13
Wind Variable Wind from SW

Today
High -- | Low -- °F
--% Chance of Precip.
Yesterday
High -- | Low -- °F
Precip. -- in
6:59 AM 8:01 PM
Waxing Crescent, 11% visible
Pressure 29.91 in
Visibility 10.0 miles
Clouds Mostly Cloudy 10000 ft
Dew Point 66 °F
Humidity 79%
Rainfall 0.11 in
Snow Depth Not available.
UV 0 out of 12
Pollen 10.20 out of 12
Ozone Good
PM2.5 Moderate
Flu Activity Not available.
METAR KPWA 290253Z AUTO 23011KT 10SM BKN100 23/19 A2996 RMK AO2 RAE0157 SLP128 P0000 60011 T02280189 53021

More Conditions Fewer Conditions

Pressure 29.91 in
Visibility 10.0 miles
Clouds Mostly Cloudy 10000 ft
Dew Point 66 °F
Humidity 79%
Rainfall 0.11 in
Snow Depth Not available.
UV 0 out of 12
Pollen 10.20 out of 12
Ozone Good
PM2.5 Moderate
Flu Activity Not available.
METAR KPWA 290253Z AUTO 23011KT 10SM BKN100 23/19 A2996 RMK AO2 RAE0157 SLP128 P0000 60011 T02280189 53021

More Conditions Fewer Conditions

10-Day Weather Forecast

Almanac

Astronomy

Aug. 28, 2014 Rise Set
Actual Time 6:59 AM CDT 8:01 PM CDT
Civil Twilight 6:33 AM CDT 8:28 PM CDT
Nautical Twilight 6:02 AM CDT 8:58 PM CDT
Astronomical Twilight 5:30 AM CDT 9:30 PM CDT
Moon 9:44 AM CDT (8/28) 9:35 PM CDT (8/28)
Length of Visible Light 13h 54m
Length of Day
13h 02m
Tomorrow will be 2m 4s shorter.
Waxing Crescent, 11% of the Moon is Illuminated
Today
Waxing Crescent
Sep 2
First Quarter
Sep 8
Full
Sep 15
Last Quarter
Sep 24
New

Today's Extremes

State Highs State Lows

Community

WunderPhotos

Upload Photos

1,748,146 photos uploaded!

Nearby

Air Quality

  Air Quality AQ Index Pollutant
Yesterday Moderate
PM2.5
Yesterday Good
OZONE
Current Moderate
PM2.5
Current Good
OZONE
Thursday Good
OZONE
Thursday Good
PM2.5
Friday Good
OZONE
Friday Good
PM2.5
Saturday Good
OZONE
Saturday Good
PM2.5
Sunday Good
OZONE
Sunday Good
PM2.5

Snow Depth

Station Depth Elevation
No new snow has been reported.

Earthquake Activity

City Distance Mag. Time & Date
Stillwater, Oklahoma 62 miles 3.1 10:44 AM CDT
2014-08-27
Anthony, Kansas 128 miles 2.8 10:11 AM CDT
2014-08-27
Guthrie, Oklahoma 41 miles 3.2 11:05 AM CDT
2014-08-26
Harrah, Oklahoma 26 miles 2.5 8:53 AM CDT
2014-08-26
Minimum magnitude displayed is 2.5.

Coastal Water Temperatures

Place Temperature
No Stations Reporting

Nearby Weather Stations